TimeEDT,TemperatureF,Dew PointF,Humidity,Sea Level PressureIn,VisibilityMPH,Wind Direction,Wind SpeedMPH,Gust SpeedMPH,PrecipitationIn,Events,Conditions,WindDirDegrees,DateUTC
12:15 AM,47.5,38.3,70,30.34,10.0,NNW,3.5,-,N/A,,Clear,340,2013-05-25 04:15:00
12:35 AM,48.4,36.3,63,30.34,10.0,North,3.5,-,N/A,,Clear,350,2013-05-25 04:35:00
12:55 AM,49.3,36.3,61,30.34,10.0,North,4.6,-,N/A,,Clear,350,2013-05-25 04:55:00
1:15 AM,47.8,35.6,63,30.34,10.0,North,5.8,-,N/A,,Clear,360,2013-05-25 05:15:00
1:35 AM,47.8,36.3,64,30.34,10.0,North,6.9,-,N/A,,Clear,360,2013-05-25 05:35:00
1:55 AM,48.2,36.0,63,30.35,10.0,North,6.9,-,N/A,,Clear,360,2013-05-25 05:55:00
2:15 AM,47.5,35.8,64,30.35,10.0,NNW,4.6,-,N/A,,Clear,340,2013-05-25 06:15:00
2:35 AM,46.8,35.6,65,30.36,10.0,North,4.6,-,N/A,,Clear,350,2013-05-25 06:35:00
2:55 AM,46.0,35.6,67,30.35,10.0,NNW,3.5,-,N/A,,Clear,340,2013-05-25 06:55:00
3:15 AM,45.1,35.1,68,30.34,10.0,Calm,Calm,-,N/A,,Clear,0,2013-05-25 07:15:00
3:35 AM,44.6,35.6,71,30.33,10.0,Calm,Calm,-,N/A,,Clear,0,2013-05-25 07:35:00
3:55 AM,43.7,35.2,72,30.32,10.0,NNE,5.8,-,N/A,,Clear,20,2013-05-25 07:55:00
4:15 AM,43.3,35.2,73,30.32,10.0,NNE,3.5,-,N/A,,Clear,30,2013-05-25 08:15:00
4:35 AM,43.9,34.9,71,30.32,10.0,Calm,Calm,-,N/A,,Clear,0,2013-05-25 08:35:00
4:55 AM,43.7,35.1,72,30.32,10.0,Calm,Calm,-,N/A,,Clear,0,2013-05-25 08:55:00
5:15 AM,43.7,35.4,73,30.31,10.0,Calm,Calm,-,N/A,,Clear,0,2013-05-25 09:15:00
5:35 AM,43.9,35.6,73,30.31,10.0,NE,3.5,-,N/A,,Clear,50,2013-05-25 09:35:00
5:55 AM,43.9,35.6,73,30.32,10.0,Calm,Calm,-,N/A,,Clear,0,2013-05-25 09:55:00
6:15 AM,43.9,35.6,73,30.32,10.0,Calm,Calm,-,N/A,,Clear,0,2013-05-25 10:15:00
6:35 AM,43.2,35.8,75,30.33,10.0,Calm,Calm,-,N/A,,Clear,0,2013-05-25 10:35:00
6:55 AM,43.7,37.2,78,30.34,10.0,Calm,Calm,-,N/A,,Clear,0,2013-05-25 10:55:00
7:15 AM,45.7,37.8,74,30.34,10.0,Calm,Calm,-,N/A,,Scattered Clouds,0,2013-05-25 11:15:00
7:35 AM,46.9,37.9,71,30.34,10.0,NE,4.6,-,N/A,,Scattered Clouds,50,2013-05-25 11:35:00
7:55 AM,47.5,37.8,69,30.36,10.0,Calm,Calm,-,N/A,,Clear,0,2013-05-25 11:55:00
8:15 AM,48.6,38.3,68,30.37,10.0,NNE,3.5,-,N/A,,Clear,30,2013-05-25 12:15:00
8:35 AM,49.5,39.0,67,30.38,10.0,North,4.6,-,N/A,,Scattered Clouds,10,2013-05-25 12:35:00
8:55 AM,50.2,39.0,66,30.39,10.0,North,3.5,-,N/A,,Overcast,10,2013-05-25 12:55:00
9:15 AM,50.9,39.2,64,30.39,10.0,Calm,Calm,-,N/A,,Mostly Cloudy,0,2013-05-25 13:15:00
9:35 AM,52.0,40.1,64,30.37,10.0,ENE,3.5,-,N/A,,Overcast,70,2013-05-25 13:35:00
9:55 AM,52.9,40.3,62,30.37,10.0,ESE,5.8,-,N/A,,Overcast,120,2013-05-25 13:55:00
10:15 AM,53.6,40.6,62,30.37,10.0,SSE,4.6,-,N/A,,Overcast,160,2013-05-25 14:15:00
10:35 AM,54.5,41.5,62,30.39,10.0,SW,5.8,-,N/A,,Mostly Cloudy,230,2013-05-25 14:35:00
10:55 AM,54.5,41.2,61,30.38,10.0,SW,3.5,-,N/A,,Overcast,230,2013-05-25 14:55:00
11:15 AM,55.6,41.7,60,30.37,10.0,South,3.5,-,N/A,,Overcast,190,2013-05-25 15:15:00
11:35 AM,56.8,41.4,56,30.38,10.0,SSW,3.5,-,N/A,,Overcast,210,2013-05-25 15:35:00
11:55 AM,58.3,40.5,52,30.37,10.0,SSW,4.6,-,N/A,,Scattered Clouds,200,2013-05-25 15:55:00
12:15 PM,59.4,39.0,47,30.37,10.0,SSE,4.6,-,N/A,,Scattered Clouds,160,2013-05-25 16:15:00
12:35 PM,60.1,37.4,43,30.36,10.0,WSW,3.5,-,N/A,,Mostly Cloudy,240,2013-05-25 16:35:00
12:55 PM,60.3,37.2,42,30.36,10.0,SW,3.5,-,N/A,,Overcast,230,2013-05-25 16:55:00
1:15 PM,61.0,37.0,41,30.35,10.0,SW,6.9,-,N/A,,Overcast,230,2013-05-25 17:15:00
1:35 PM,61.0,35.1,38,30.36,10.0,WNW,3.5,-,N/A,,Overcast,290,2013-05-25 17:35:00
1:55 PM,61.0,34.5,37,30.36,10.0,West,3.5,-,N/A,,Overcast,260,2013-05-25 17:55:00
2:15 PM,62.1,31.5,32,30.36,10.0,West,5.8,-,N/A,,Overcast,280,2013-05-25 18:15:00
2:35 PM,63.1,29.3,28,30.36,10.0,West,6.9,-,N/A,,Overcast,260,2013-05-25 18:35:00
2:55 PM,62.6,30.4,30,30.35,10.0,West,6.9,-,N/A,,Overcast,280,2013-05-25 18:55:00
3:15 PM,62.8,28.4,27,30.34,10.0,NW,3.5,-,N/A,,Overcast,310,2013-05-25 19:15:00
3:35 PM,62.6,31.8,32,30.33,10.0,NW,5.8,-,N/A,,Overcast,310,2013-05-25 19:35:00
3:55 PM,61.9,31.8,32,30.32,10.0,North,4.6,-,N/A,,Overcast,350,2013-05-25 19:55:00
4:15 PM,61.9,32.0,33,30.31,10.0,Calm,Calm,-,N/A,,Overcast,0,2013-05-25 20:15:00
4:35 PM,61.9,31.5,32,30.31,10.0,Calm,Calm,-,N/A,,Overcast,0,2013-05-25 20:35:00
4:55 PM,61.9,32.0,33,30.30,10.0,Calm,Calm,-,N/A,,Overcast,0,2013-05-25 20:55:00
5:15 PM,61.9,31.6,32,30.30,10.0,Calm,Calm,-,N/A,,Overcast,0,2013-05-25 21:15:00
5:35 PM,61.9,31.1,31,30.29,10.0,Calm,Calm,-,N/A,,Overcast,0,2013-05-25 21:35:00
5:55 PM,62.2,31.6,32,30.27,10.0,ENE,3.5,-,N/A,,Overcast,60,2013-05-25 21:55:00
6:15 PM,62.1,31.1,31,30.25,10.0,East,3.5,-,N/A,,Overcast,90,2013-05-25 22:15:00
6:35 PM,62.6,31.5,31,30.23,10.0,ESE,4.6,-,N/A,,Mostly Cloudy,110,2013-05-25 22:35:00
6:55 PM,62.6,29.3,28,30.25,10.0,ESE,4.6,-,N/A,,Mostly Cloudy,120,2013-05-25 22:55:00
7:15 PM,62.1,30.4,30,30.26,10.0,ENE,3.5,-,N/A,,Overcast,70,2013-05-25 23:15:00
7:35 PM,61.7,32.0,33,30.28,10.0,NNE,3.5,-,N/A,,Overcast,20,2013-05-25 23:35:00
7:55 PM,61.7,31.8,33,30.28,10.0,North,4.6,-,N/A,,Overcast,360,2013-05-25 23:55:00
8:15 PM,61.7,31.8,33,30.29,10.0,North,3.5,-,N/A,,Overcast,360,2013-05-26 00:15:00
8:35 PM,60.8,33.3,36,30.28,10.0,North,3.5,-,N/A,,Overcast,360,2013-05-26 00:35:00
8:55 PM,59.7,36.9,43,30.28,10.0,North,3.5,-,N/A,,Light Drizzle,10,2013-05-26 00:55:00
9:15 PM,58.6,39.0,48,30.29,10.0,North,9.2,-,N/A,Rain,Light Rain,360,2013-05-26 01:15:00
9:35 PM,57.2,42.6,58,30.29,10.0,North,4.6,-,N/A,,Light Drizzle,360,2013-05-26 01:35:00
9:55 PM,56.5,43.2,61,30.29,10.0,North,3.5,-,N/A,,Overcast,10,2013-05-26 01:55:00
10:15 PM,56.3,43.5,62,30.30,10.0,NNW,3.5,-,N/A,,Overcast,330,2013-05-26 02:15:00
10:35 PM,55.6,44.2,66,30.31,10.0,WNW,3.5,-,N/A,,Overcast,300,2013-05-26 02:35:00
10:55 PM,55.8,43.3,63,30.31,10.0,WNW,3.5,-,N/A,,Mostly Cloudy,290,2013-05-26 02:55:00
11:15 PM,55.4,42.3,61,30.32,10.0,WNW,3.5,-,N/A,,Scattered Clouds,290,2013-05-26 03:15:00
11:35 PM,55.0,41.5,60,30.31,10.0,WNW,3.5,-,N/A,,Clear,290,2013-05-26 03:35:00
11:55 PM,54.9,40.1,58,30.31,10.0,West,5.8,-,N/A,,Clear,270,2013-05-26 03:55:00